LEGE/GRO METAR and TAF weather

Enter ICAO airport designator
Station Type Date Time Source
LEGE METAR 2020/01/20 10:00 UTC NOAA

LEGE 201000Z 03023G34KT 9999 -RA OVC034 06/M00 Q1030


Station Type Date Time Source
LEGE Decoded METAR 2020/01/20 10:00 UTC NOAA

Gerona / Costa Brava, Spain (LEGE) 41-54N 002-46E 129M
Jan 20, 2020 - 05:00 AM EST / 2020.01.20 1000 UTC
Wind: from the NNE (030 degrees) at 26 MPH (23 KT) gusting to 39 MPH (34 KT):0
Visibility: greater than 7 mile(s):0
Sky conditions: overcast
Weather: light rain
Temperature: 42 F (6 C)
Dew Point: 32 F (0 C)
Relative Humidity: 65%
Pressure (altimeter): 30.42 in. Hg (1030 hPa)
ob: LEGE 201000Z 03023G34KT 9999 -RA OVC034 06/M00 Q1030
cycle: 10

Station Type Date Time Source
LEGE TAF 2020/01/20 06:27 UTC NOAA

TAF LEGE 200500Z 2006/2106 01022G36KT 9999 FEW030 TX10/2013Z TN05/2006Z
BECMG 2006/2009 BKN018
TEMPO 2007/2024 3000 RA BKN012 FEW015TCU
BECMG 2018/2021 04015G32KT

Example: see airport list